Time;durP1;ratioP1;P1;durP2;ratioP2;P2;SDS_P1;SDS_P2;PMS_P1;PMS_P2;Temp;Humidity;BMP_temperature;BMP_pressure;BME280_temperature;BME280_humidity;BME280_pressure;Samples;Min_cycle;Max_cycle;Signal;HPM_P1;HPM_P2
2024/03/02 00:02:00;;;;;;;5.53;1.08;;;4.30;99.90;;;;;;5034632;28;20045;-65
2024/03/02 00:04:27;;;;;;;4.15;1.10;;;4.30;99.90;;;;;;5032862;28;20391;-66
2024/03/02 00:06:57;;;;;;;4.50;1.00;;;4.30;99.90;;;;;;5033168;28;20405;-67
2024/03/02 00:09:24;;;;;;;7.95;1.60;;;4.30;99.90;;;;;;5034765;28;20046;-66
2024/03/02 00:11:51;;;;;;;3.80;0.88;;;4.30;99.90;;;;;;5034348;28;20037;-67
2024/03/02 00:14:18;;;;;;;2.25;1.10;;;4.20;99.90;;;;;;5034284;28;20103;-67
2024/03/02 00:16:45;;;;;;;3.83;1.02;;;4.20;99.90;;;;;;5033119;28;20574;-66
2024/03/02 00:19:12;;;;;;;6.15;1.38;;;4.20;99.90;;;;;;5034738;28;20037;-66
2024/03/02 00:21:39;;;;;;;5.82;1.15;;;4.20;99.90;;;;;;5035192;28;20033;-66
2024/03/02 00:24:06;;;;;;;4.00;1.20;;;4.20;99.90;;;;;;5036360;28;20058;-66
2024/03/02 00:26:33;;;;;;;4.10;1.20;;;4.20;99.90;;;;;;5035425;28;20073;-66
2024/03/02 00:29:00;;;;;;;3.58;1.13;;;4.20;99.90;;;;;;5035288;28;20434;-66
2024/03/02 00:31:27;;;;;;;6.07;1.50;;;4.20;99.90;;;;;;5034859;28;20100;-66
2024/03/02 00:33:54;;;;;;;5.45;1.30;;;4.20;99.90;;;;;;5035200;28;20121;-66
2024/03/02 00:36:21;;;;;;;4.38;1.17;;;4.30;99.90;;;;;;5035017;28;20044;-65
2024/03/02 00:38:48;;;;;;;5.43;1.23;;;4.30;99.90;;;;;;5035033;28;20045;-65
2024/03/02 00:41:14;;;;;;;6.20;1.33;;;4.20;99.90;;;;;;5034790;28;20394;-65
2024/03/02 00:43:42;;;;;;;6.30;1.60;;;4.20;99.90;;;;;;5034305;28;20064;-65
2024/03/02 00:46:13;;;;;;;7.72;1.63;;;4.10;99.90;;;;;;5034159;28;20044;-66
2024/03/02 00:48:40;;;;;;;7.13;2.30;;;4.10;99.90;;;;;;5033931;28;20065;-66
2024/03/02 00:51:07;;;;;;;4.13;1.35;;;4.10;99.90;;;;;;5034030;28;20391;-67
2024/03/02 00:53:34;;;;;;;10.90;1.08;;;4.00;99.90;;;;;;5032718;28;20034;-66
2024/03/02 00:56:03;;;;;;;6.20;1.50;;;4.00;99.90;;;;;;5031805;28;20065;-67
2024/03/02 00:58:30;;;;;;;6.38;1.33;;;4.00;99.90;;;;;;5032592;28;20095;-67
2024/03/02 01:00:57;;;;;;;8.30;1.25;;;4.00;99.90;;;;;;5034586;28;20068;-66
2024/03/02 01:03:24;;;;;;;6.25;1.60;;;3.90;99.90;;;;;;5033095;28;20096;-66
2024/03/02 01:05:51;;;;;;;8.82;1.60;;;3.90;99.90;;;;;;5034193;28;20064;-66
2024/03/02 01:08:18;;;;;;;6.60;1.77;;;3.90;99.90;;;;;;5032333;28;20137;-66
2024/03/02 01:10:45;;;;;;;11.05;1.75;;;4.00;99.90;;;;;;5032665;28;20048;-67
2024/03/02 01:13:12;;;;;;;5.50;1.65;;;4.00;99.90;;;;;;5033777;28;20056;-65
2024/03/02 01:15:39;;;;;;;7.05;1.75;;;3.90;99.90;;;;;;5033540;28;20042;-65
2024/03/02 01:18:06;;;;;;;10.43;1.52;;;3.90;99.90;;;;;;5033511;28;20041;-65
2024/03/02 01:20:33;;;;;;;10.57;2.40;;;3.90;99.90;;;;;;5033721;28;20051;-65
2024/03/02 01:23:00;;;;;;;10.52;1.70;;;4.00;99.90;;;;;;5033746;28;20046;-65
2024/03/02 01:25:26;;;;;;;10.25;1.80;;;4.00;99.90;;;;;;5033352;28;20052;-65
2024/03/02 01:27:53;;;;;;;10.45;1.50;;;4.00;99.90;;;;;;5033826;28;20045;-65
2024/03/02 01:30:21;;;;;;;5.18;1.20;;;4.00;99.90;;;;;;5033372;28;20052;-65
2024/03/02 01:32:48;;;;;;;13.70;1.60;;;4.00;99.90;;;;;;5032379;28;20037;-65
2024/03/02 01:35:15;;;;;;;4.70;1.20;;;4.00;99.90;;;;;;5033328;28;20095;-65
2024/03/02 01:37:41;;;;;;;8.63;1.35;;;4.00;99.90;;;;;;5033275;28;20088;-64
2024/03/02 01:40:09;;;;;;;7.40;1.92;;;4.10;99.90;;;;;;5033370;28;20099;-65
2024/03/02 01:42:36;;;;;;;11.05;1.90;;;4.10;99.90;;;;;;5033180;28;20474;-65
2024/03/02 01:45:03;;;;;;;9.75;2.00;;;4.10;99.90;;;;;;5033294;28;20050;-65
2024/03/02 01:47:30;;;;;;;10.63;1.95;;;4.20;99.90;;;;;;5033157;28;20053;-64
2024/03/02 01:49:58;;;;;;;9.18;1.60;;;4.20;99.90;;;;;;5033426;28;20046;-65
2024/03/02 01:52:24;;;;;;;8.63;1.42;;;4.30;99.90;;;;;;5033398;28;20045;-65
2024/03/02 01:54:51;;;;;;;9.05;1.58;;;4.30;99.90;;;;;;5033056;28;20044;-64
2024/03/02 01:57:18;;;;;;;7.57;1.20;;;4.40;99.90;;;;;;5033300;28;20061;-65
2024/03/02 01:59:47;;;;;;;7.43;1.35;;;4.40;99.90;;;;;;5032041;28;20487;-65
2024/03/02 02:02:14;;;;;;;11.07;1.65;;;4.40;99.90;;;;;;5015585;28;20495;-65
2024/03/02 02:04:41;;;;;;;13.95;1.63;;;4.50;99.90;;;;;;5033378;28;20044;-65
2024/03/02 02:07:07;;;;;;;11.10;1.58;;;4.50;99.90;;;;;;5034733;28;20046;-64
2024/03/02 02:09:34;;;;;;;9.85;1.70;;;4.50;99.90;;;;;;5036796;28;20043;-64
2024/03/02 02:12:02;;;;;;;8.95;1.95;;;4.60;99.90;;;;;;5035427;28;20096;-65
2024/03/02 02:14:29;;;;;;;7.53;1.70;;;4.60;99.90;;;;;;5036285;28;20050;-65
2024/03/02 02:16:56;;;;;;;8.20;1.35;;;4.70;99.90;;;;;;5036258;28;20033;-64
2024/03/02 02:19:23;;;;;;;10.15;1.70;;;4.70;99.90;;;;;;5035325;28;20049;-64
2024/03/02 02:21:49;;;;;;;14.52;1.88;;;4.70;99.90;;;;;;5035910;28;20041;-64
2024/03/02 02:24:16;;;;;;;13.85;1.58;;;4.70;99.90;;;;;;5036078;28;20049;-64
2024/03/02 02:26:43;;;;;;;9.73;1.50;;;4.80;99.90;;;;;;5036180;28;20049;-65
2024/03/02 02:29:10;;;;;;;12.52;1.85;;;4.80;99.90;;;;;;5035554;28;20037;-64
2024/03/02 02:31:37;;;;;;;12.68;1.75;;;4.90;99.90;;;;;;5035209;28;20033;-64
2024/03/02 02:34:04;;;;;;;11.15;2.72;;;4.90;99.90;;;;;;5035546;28;20442;-65
2024/03/02 02:36:31;;;;;;;10.48;1.70;;;4.90;99.90;;;;;;5036257;28;20502;-66
2024/03/02 02:38:58;;;;;;;12.50;1.90;;;4.90;99.90;;;;;;5035931;28;20045;-66
2024/03/02 02:41:25;;;;;;;13.93;1.80;;;5.00;99.90;;;;;;5035723;28;20045;-66
2024/03/02 02:43:51;;;;;;;8.05;1.77;;;4.90;99.90;;;;;;5036219;28;20046;-67
2024/03/02 02:46:18;;;;;;;9.50;1.88;;;4.90;99.90;;;;;;5035902;28;20477;-67
2024/03/02 02:48:45;;;;;;;8.35;1.33;;;4.90;99.90;;;;;;5035818;28;20121;-66
2024/03/02 02:51:12;;;;;;;9.10;1.50;;;5.00;99.90;;;;;;5035798;28;20069;-65
2024/03/02 02:53:42;;;;;;;8.75;1.83;;;5.00;99.90;;;;;;5034625;28;20033;-65
2024/03/02 02:56:08;;;;;;;11.63;1.70;;;5.00;99.90;;;;;;5035624;28;20121;-64
2024/03/02 02:58:35;;;;;;;10.75;1.63;;;5.10;99.90;;;;;;5035650;28;20061;-64
2024/03/02 03:01:02;;;;;;;9.88;1.58;;;5.10;99.90;;;;;;5035982;28;20099;-64
2024/03/02 03:03:30;;;;;;;12.43;1.77;;;5.10;99.90;;;;;;5035929;28;20037;-64
2024/03/02 03:05:56;;;;;;;10.05;1.77;;;5.20;99.90;;;;;;5035600;28;20095;-65
2024/03/02 03:08:24;;;;;;;7.22;1.42;;;5.20;99.90;;;;;;5035576;28;20046;-64
2024/03/02 03:10:51;;;;;;;12.18;1.88;;;5.20;99.90;;;;;;5035559;28;20501;-65
2024/03/02 03:13:17;;;;;;;10.20;1.52;;;5.20;99.90;;;;;;5035665;28;20045;-65
2024/03/02 03:15:45;;;;;;;11.02;1.95;;;5.20;99.90;;;;;;5034804;28;20050;-66
2024/03/02 03:18:11;;;;;;;13.15;1.58;;;5.30;99.90;;;;;;5034847;28;20037;-66
2024/03/02 03:20:38;;;;;;;11.30;1.65;;;5.30;99.90;;;;;;5035121;28;20041;-66
2024/03/02 03:23:05;;;;;;;10.50;1.48;;;5.30;99.90;;;;;;5033865;28;20041;-67
2024/03/02 03:25:32;;;;;;;8.63;1.70;;;5.30;99.90;;;;;;5034046;28;20391;-66
2024/03/02 03:27:59;;;;;;;11.60;1.85;;;5.30;99.90;;;;;;5035326;28;20045;-66
2024/03/02 03:30:26;;;;;;;10.05;1.73;;;5.30;99.90;;;;;;5035040;28;20049;-66
2024/03/02 03:32:52;;;;;;;11.73;1.92;;;5.30;99.90;;;;;;5034728;28;20042;-66
2024/03/02 03:35:19;;;;;;;11.88;2.00;;;5.30;99.90;;;;;;5034822;28;20063;-67
2024/03/02 03:37:46;;;;;;;9.88;1.80;;;5.40;99.90;;;;;;5035139;28;20046;-66
2024/03/02 03:40:14;;;;;;;6.85;1.65;;;5.40;99.90;;;;;;5035167;28;20107;-66
2024/03/02 03:42:41;;;;;;;8.57;1.58;;;5.40;99.90;;;;;;5034675;28;20482;-65
2024/03/02 03:45:08;;;;;;;13.63;2.08;;;5.40;99.90;;;;;;5034672;28;20053;-65
2024/03/02 03:47:35;;;;;;;13.38;2.50;;;5.40;99.90;;;;;;5034966;28;20041;-66
2024/03/02 03:50:04;;;;;;;11.02;1.90;;;5.40;99.90;;;;;;5034550;28;20064;-66
2024/03/02 03:52:31;;;;;;;13.63;1.80;;;5.40;99.90;;;;;;5034750;28;20041;-66
2024/03/02 03:54:58;;;;;;;10.50;2.60;;;5.50;99.90;;;;;;5051486;28;20045;-66
2024/03/02 03:57:25;;;;;;;10.65;1.80;;;5.50;99.90;;;;;;5054434;28;20463;-66
2024/03/02 03:59:52;;;;;;;8.63;2.00;;;5.50;99.90;;;;;;5054372;28;20037;-65
2024/03/02 04:02:19;;;;;;;17.33;2.28;;;5.50;99.90;;;;;;5054223;28;20051;-64
2024/03/02 04:04:45;;;;;;;10.63;1.67;;;5.50;99.90;;;;;;5054641;28;20041;-65
2024/03/02 04:07:13;;;;;;;17.85;4.20;;;5.50;99.90;;;;;;5054230;28;20033;-65
2024/03/02 04:09:39;;;;;;;15.32;2.35;;;5.50;99.90;;;;;;5054764;28;20044;-65
2024/03/02 04:12:06;;;;;;;14.05;2.08;;;5.50;99.90;;;;;;5054111;28;20076;-65
2024/03/02 04:14:33;;;;;;;10.55;2.50;;;5.50;99.90;;;;;;5054159;28;20056;-65
2024/03/02 04:17:00;;;;;;;13.70;2.20;;;5.50;99.90;;;;;;5054269;28;20113;-65
2024/03/02 04:19:27;;;;;;;13.23;2.40;;;5.50;99.90;;;;;;5054042;28;20043;-65
2024/03/02 04:21:53;;;;;;;13.65;2.05;;;5.50;99.90;;;;;;5054392;28;20522;-64
2024/03/02 04:24:20;;;;;;;13.30;2.83;;;5.50;99.90;;;;;;5054071;28;20048;-65
2024/03/02 04:26:47;;;;;;;9.73;2.33;;;5.50;99.90;;;;;;5053764;28;20063;-65
2024/03/02 04:29:14;;;;;;;12.98;2.20;;;5.50;99.90;;;;;;5053848;28;20068;-65
2024/03/02 04:31:41;;;;;;;13.77;2.33;;;5.40;99.90;;;;;;5054096;28;20041;-65
2024/03/02 04:34:08;;;;;;;14.57;2.65;;;5.40;99.90;;;;;;5053025;28;20140;-65
2024/03/02 04:36:34;;;;;;;11.25;1.90;;;5.40;99.90;;;;;;5054004;28;20470;-65
2024/03/02 04:39:01;;;;;;;14.50;2.13;;;5.40;99.90;;;;;;5054044;28;20040;-65
2024/03/02 04:41:28;;;;;;;12.00;2.33;;;5.40;99.90;;;;;;5053895;28;20049;-64
2024/03/02 04:43:55;;;;;;;10.23;1.70;;;5.40;99.90;;;;;;5054758;28;20040;-64
2024/03/02 04:46:22;;;;;;;14.77;2.60;;;5.40;99.90;;;;;;5052069;28;20040;-64
2024/03/02 04:48:54;;;;;;;10.18;2.00;;;5.40;99.90;;;;;;5053691;28;20043;-65
2024/03/02 04:51:21;;;;;;;10.43;2.28;;;5.40;99.90;;;;;;5052511;28;20044;-65
2024/03/02 04:53:48;;;;;;;9.45;2.13;;;5.50;99.90;;;;;;5053554;28;20041;-64
2024/03/02 04:58:57;;;;;;;13.88;2.60;;;5.50;99.90;;;;;;5053759;28;20057;-65
2024/03/02 05:01:24;;;;;;;12.60;2.42;;;5.50;99.90;;;;;;5053675;28;20128;-65
2024/03/02 05:03:51;;;;;;;15.68;2.30;;;5.50;99.90;;;;;;5053275;28;20112;-65
2024/03/02 05:06:18;;;;;;;14.18;2.40;;;5.50;99.90;;;;;;5052834;28;20095;-65
2024/03/02 05:08:45;;;;;;;11.50;2.00;;;5.50;99.90;;;;;;5053441;28;20450;-65
2024/03/02 05:13:58;;;;;;;15.95;2.28;;;5.50;99.90;;;;;;5053533;28;20382;-64
2024/03/02 05:16:24;;;;;;;11.30;2.10;;;5.50;99.90;;;;;;5053097;28;20068;-65
2024/03/02 05:18:51;;;;;;;11.43;2.13;;;5.50;99.90;;;;;;5053069;28;20438;-64
2024/03/02 05:21:18;;;;;;;9.82;2.03;;;5.50;99.90;;;;;;5053185;28;20458;-65
2024/03/02 05:23:45;;;;;;;10.75;2.13;;;5.60;99.90;;;;;;5053633;28;20041;-64
2024/03/02 05:26:15;;;;;;;12.55;2.20;;;5.50;99.90;;;;;;5053436;28;20095;-64
2024/03/02 05:28:41;;;;;;;11.23;2.17;;;5.50;99.90;;;;;;5053257;28;20378;-65
2024/03/02 05:31:08;;;;;;;12.25;2.03;;;5.50;99.90;;;;;;5053398;28;20504;-65
2024/03/02 05:33:35;;;;;;;14.50;2.30;;;5.50;99.90;;;;;;5053162;28;20045;-65
2024/03/02 05:36:02;;;;;;;13.13;1.92;;;5.50;99.90;;;;;;5051599;28;20555;-64
2024/03/02 05:38:29;;;;;;;9.88;2.50;;;5.50;99.90;;;;;;5053519;28;20041;-65
2024/03/02 05:40:56;;;;;;;13.82;2.30;;;5.50;99.90;;;;;;5052337;28;20132;-64
2024/03/02 05:43:22;;;;;;;12.13;2.00;;;5.50;99.90;;;;;;5056961;28;20045;-67
2024/03/02 05:45:49;;;;;;;13.45;2.90;;;5.60;99.90;;;;;;5057113;28;20044;-67
2024/03/02 05:48:16;;;;;;;14.00;2.10;;;5.60;99.90;;;;;;5057141;28;20132;-67
2024/03/02 05:50:43;;;;;;;10.30;1.90;;;5.60;99.90;;;;;;5056900;28;20037;-67
2024/03/02 05:53:09;;;;;;;14.20;2.30;;;5.60;99.90;;;;;;5056671;28;20128;-67
2024/03/02 05:55:36;;;;;;;15.45;3.67;;;5.60;99.90;;;;;;5056481;28;20048;-65
2024/03/02 06:00:33;;;;;;;10.45;2.28;;;5.60;99.90;;;;;;5036747;28;20064;-67
2024/03/02 06:03:00;;;;;;;13.57;2.10;;;5.60;99.90;;;;;;5036325;28;20051;-66
2024/03/02 06:05:27;;;;;;;12.77;2.30;;;5.60;99.90;;;;;;5036124;28;20045;-66
2024/03/02 06:07:54;;;;;;;14.60;2.97;;;5.60;99.90;;;;;;5036400;28;20065;-66
2024/03/02 06:10:21;;;;;;;13.50;2.25;;;5.60;99.90;;;;;;5034306;28;20087;-66
2024/03/02 06:12:48;;;;;;;13.85;2.50;;;5.70;99.90;;;;;;5035092;28;20038;-66
2024/03/02 06:15:14;;;;;;;15.35;2.40;;;5.70;99.90;;;;;;5033943;28;20049;-65
2024/03/02 06:17:41;;;;;;;13.15;2.40;;;5.70;99.90;;;;;;5036418;28;20045;-66
2024/03/02 06:20:08;;;;;;;10.63;2.00;;;5.70;99.90;;;;;;5035286;28;20053;-65
2024/03/02 06:22:35;;;;;;;13.98;2.30;;;5.80;99.90;;;;;;5035272;28;20103;-67
2024/03/02 06:25:02;;;;;;;14.48;2.15;;;5.80;99.90;;;;;;5036378;28;20479;-64
2024/03/02 06:27:29;;;;;;;16.17;2.38;;;5.80;99.90;;;;;;5035546;28;20487;-64
2024/03/02 06:29:56;;;;;;;15.38;2.88;;;5.80;99.90;;;;;;5034950;28;20052;-67
2024/03/02 06:32:25;;;;;;;19.02;2.35;;;5.80;99.90;;;;;;5036239;28;20044;-66
2024/03/02 06:34:51;;;;;;;17.52;2.90;;;5.80;99.90;;;;;;5036264;28;20037;-67
2024/03/02 06:37:18;;;;;;;16.30;2.53;;;5.90;99.90;;;;;;5036073;28;20038;-66
2024/03/02 06:39:45;;;;;;;12.40;2.00;;;5.90;99.90;;;;;;5036168;28;20037;-67
2024/03/02 06:42:12;;;;;;;10.32;2.20;;;5.90;99.90;;;;;;5036153;28;20042;-66
2024/03/02 06:44:39;;;;;;;12.05;2.13;;;5.90;99.90;;;;;;5034775;28;20103;-66
2024/03/02 06:47:06;;;;;;;8.98;1.75;;;5.90;99.90;;;;;;5036118;28;20037;-67
2024/03/02 06:49:34;;;;;;;10.77;1.80;;;5.90;99.90;;;;;;5036323;28;20120;-66
2024/03/02 06:52:01;;;;;;;15.00;2.60;;;5.90;99.90;;;;;;5034894;28;20048;-65
2024/03/02 06:54:28;;;;;;;13.15;2.05;;;5.90;99.90;;;;;;5034487;28;20041;-65
2024/03/02 06:56:55;;;;;;;9.73;1.77;;;5.90;99.90;;;;;;5035838;28;20536;-65
2024/03/02 06:59:21;;;;;;;11.05;2.55;;;5.90;99.90;;;;;;5034568;28;20069;-65
2024/03/02 07:01:48;;;;;;;8.75;1.83;;;5.90;99.90;;;;;;5035808;28;20045;-65
2024/03/02 07:04:15;;;;;;;11.40;1.92;;;5.80;99.90;;;;;;5035664;28;20046;-66
2024/03/02 07:06:42;;;;;;;11.95;2.03;;;5.80;99.90;;;;;;5034083;28;20041;-66
2024/03/02 07:09:10;;;;;;;6.95;2.08;;;5.80;99.90;;;;;;5041169;28;20041;-66
2024/03/02 07:11:37;;;;;;;13.60;1.90;;;5.80;99.90;;;;;;5055727;28;20082;-67
2024/03/02 07:14:04;;;;;;;9.52;1.60;;;5.80;99.90;;;;;;5054699;28;20065;-66
2024/03/02 07:16:33;;;;;;;9.90;1.70;;;5.80;99.90;;;;;;5053372;28;20048;-66
2024/03/02 07:19:01;;;;;;;9.68;1.80;;;5.80;99.90;;;;;;5054016;28;20064;-67
2024/03/02 07:21:28;;;;;;;10.98;1.73;;;5.80;99.90;;;;;;5054731;28;20071;-67
2024/03/02 07:23:55;;;;;;;8.32;1.50;;;5.90;99.90;;;;;;5054692;28;20039;-67
2024/03/02 07:26:22;;;;;;;12.38;1.75;;;5.90;99.90;;;;;;5054532;28;20136;-67
2024/03/02 07:28:52;;;;;;;13.45;2.28;;;5.90;99.90;;;;;;5054786;28;20474;-66
2024/03/02 07:31:19;;;;;;;12.88;2.45;;;5.80;99.90;;;;;;5054614;28;20045;-65
2024/03/02 07:33:46;;;;;;;7.38;1.65;;;5.80;99.90;;;;;;5055134;28;20478;-64
2024/03/02 07:36:13;;;;;;;12.88;1.77;;;5.80;99.90;;;;;;5055049;28;20037;-64
2024/03/02 07:38:40;;;;;;;9.60;2.42;;;5.90;99.90;;;;;;5055347;28;20041;-64
2024/03/02 07:41:07;;;;;;;9.20;2.20;;;6.00;99.90;;;;;;5055057;28;20128;-64
2024/03/02 07:43:34;;;;;;;10.80;2.17;;;6.00;99.90;;;;;;5054769;28;20107;-64
2024/03/02 07:46:02;;;;;;;12.57;1.88;;;6.10;99.90;;;;;;5054689;28;20051;-64
2024/03/02 07:48:30;;;;;;;11.25;1.73;;;6.20;99.90;;;;;;5054677;28;20044;-64
2024/03/02 07:50:57;;;;;;;13.48;2.20;;;6.20;99.90;;;;;;5053626;28;20045;-65
2024/03/02 07:53:24;;;;;;;8.90;2.13;;;6.20;99.90;;;;;;5054582;28;20444;-66
2024/03/02 07:55:51;;;;;;;10.05;1.60;;;6.30;99.90;;;;;;5054440;28;20048;-65
2024/03/02 07:58:19;;;;;;;9.40;1.85;;;6.30;99.90;;;;;;5054808;28;20033;-65
2024/03/02 08:00:46;;;;;;;8.02;1.58;;;6.30;99.90;;;;;;5054642;28;20060;-65
2024/03/02 08:03:13;;;;;;;5.57;1.23;;;6.30;99.90;;;;;;5054670;28;20041;-65
2024/03/02 08:05:40;;;;;;;8.25;1.75;;;6.40;99.90;;;;;;5053881;28;20458;-66
2024/03/02 08:08:07;;;;;;;9.40;1.45;;;6.40;99.90;;;;;;5052959;28;20049;-65
2024/03/02 08:10:34;;;;;;;9.77;1.63;;;6.40;99.90;;;;;;5052889;28;20051;-64
2024/03/02 08:13:00;;;;;;;11.32;1.67;;;6.40;99.90;;;;;;5054205;28;20045;-64
2024/03/02 08:15:27;;;;;;;6.55;1.20;;;6.30;99.90;;;;;;5052973;28;20041;-65
2024/03/02 08:17:54;;;;;;;7.70;1.60;;;6.30;99.90;;;;;;5054057;28;20040;-63
2024/03/02 08:20:21;;;;;;;8.77;1.52;;;6.30;99.90;;;;;;5054434;28;20041;-64
2024/03/02 08:22:48;;;;;;;6.55;1.60;;;6.30;99.90;;;;;;5054131;28;20056;-63
2024/03/02 08:25:15;;;;;;;9.25;2.10;;;6.40;99.90;;;;;;5054098;28;20043;-64
2024/03/02 08:27:42;;;;;;;9.43;1.58;;;6.40;99.90;;;;;;5053911;28;20041;-64
2024/03/02 08:30:10;;;;;;;8.68;1.75;;;6.50;99.90;;;;;;5047917;28;20072;-64
2024/03/02 08:32:37;;;;;;;12.73;1.83;;;6.60;99.90;;;;;;5033683;28;20041;-66
2024/03/02 08:35:04;;;;;;;10.02;1.70;;;6.70;99.90;;;;;;5039396;28;20072;-66
2024/03/02 08:37:31;;;;;;;9.82;1.70;;;6.80;99.90;;;;;;5043883;28;20448;-66
2024/03/02 08:39:57;;;;;;;7.03;1.80;;;6.90;99.90;;;;;;5049490;28;20048;-66
2024/03/02 08:42:24;;;;;;;11.45;1.75;;;7.00;99.90;;;;;;5054067;28;20086;-66
2024/03/02 08:44:51;;;;;;;14.60;2.65;;;7.00;99.90;;;;;;5052457;28;20390;-65
2024/03/02 08:47:18;;;;;;;11.38;1.77;;;6.90;99.90;;;;;;5053695;28;20041;-66
2024/03/02 08:49:45;;;;;;;10.25;2.53;;;6.90;99.90;;;;;;5053804;28;20045;-66
2024/03/02 08:52:12;;;;;;;10.65;2.03;;;6.80;99.90;;;;;;5053590;28;20049;-66
2024/03/02 08:54:39;;;;;;;9.73;1.63;;;6.80;99.90;;;;;;5053790;28;20504;-66
2024/03/02 08:57:07;;;;;;;9.32;1.80;;;6.80;99.90;;;;;;5052295;28;20045;-66
2024/03/02 08:59:34;;;;;;;7.88;1.30;;;6.70;99.90;;;;;;5053913;28;20091;-66
2024/03/02 09:02:00;;;;;;;6.20;1.48;;;6.60;99.90;;;;;;5052472;28;20052;-65
2024/03/02 09:04:27;;;;;;;4.30;1.08;;;6.50;99.90;;;;;;5053718;28;20489;-65
2024/03/02 09:06:58;;;;;;;5.43;0.88;;;6.40;99.90;;;;;;5052300;28;20056;-64
2024/03/02 09:09:25;;;;;;;6.47;1.30;;;6.30;99.90;;;;;;5053634;28;20045;-64
2024/03/02 09:11:54;;;;;;;7.30;1.30;;;6.20;99.90;;;;;;5035845;28;20103;-64
2024/03/02 09:14:21;;;;;;;5.88;1.48;;;6.10;99.90;;;;;;5053297;28;20037;-64
2024/03/02 09:16:48;;;;;;;6.47;1.10;;;6.20;99.90;;;;;;5055571;28;20079;-66
2024/03/02 09:19:16;;;;;;;7.20;1.00;;;6.10;99.90;;;;;;5057273;28;20037;-66
2024/03/02 09:21:43;;;;;;;3.90;1.00;;;6.10;99.90;;;;;;5055938;28;20044;-65
2024/03/02 09:24:10;;;;;;;4.88;1.30;;;6.10;99.90;;;;;;5057686;28;20051;-65
2024/03/02 09:26:39;;;;;;;5.88;1.20;;;6.20;99.90;;;;;;5047830;28;20041;-64
2024/03/02 09:29:06;;;;;;;5.35;1.30;;;6.20;99.90;;;;;;5037331;28;20065;-65
2024/03/02 09:31:33;;;;;;;5.28;1.20;;;6.30;99.90;;;;;;5046471;28;20071;-65
2024/03/02 09:34:00;;;;;;;6.15;1.50;;;6.30;99.90;;;;;;5057079;28;20045;-64
2024/03/02 09:36:27;;;;;;;8.25;1.48;;;6.40;99.90;;;;;;5057140;28;20033;-64
2024/03/02 09:38:54;;;;;;;11.90;1.63;;;6.50;99.90;;;;;;5057251;28;20044;-65
2024/03/02 09:41:20;;;;;;;7.97;1.30;;;6.50;99.90;;;;;;5056370;28;20123;-64
2024/03/02 09:43:48;;;;;;;6.72;1.00;;;6.60;99.90;;;;;;5057500;28;20099;-66
2024/03/02 09:46:14;;;;;;;5.30;1.20;;;6.70;99.90;;;;;;5057505;28;20594;-65
2024/03/02 09:48:41;;;;;;;9.70;1.45;;;6.80;99.90;;;;;;5057016;28;20045;-66
2024/03/02 09:51:08;;;;;;;7.20;1.73;;;6.80;99.90;;;;;;5055579;28;20052;-65
2024/03/02 09:53:35;;;;;;;9.18;1.30;;;6.90;99.90;;;;;;5056872;28;20037;-65
2024/03/02 09:56:02;;;;;;;7.38;1.23;;;6.90;99.90;;;;;;5056974;28;20044;-65
2024/03/02 09:58:29;;;;;;;5.50;1.23;;;6.90;99.90;;;;;;5055458;28;20061;-67
2024/03/02 10:00:56;;;;;;;6.05;1.50;;;6.90;99.90;;;;;;5049570;28;20052;-65
2024/03/02 10:03:24;;;;;;;5.97;1.25;;;6.90;99.90;;;;;;5037013;28;20094;-65
2024/03/02 10:05:51;;;;;;;7.57;1.67;;;6.80;99.90;;;;;;5035517;28;20046;-65
2024/03/02 10:08:18;;;;;;;5.53;0.93;;;6.60;99.90;;;;;;5037128;28;20065;-65
2024/03/02 10:10:45;;;;;;;7.18;1.30;;;6.50;99.90;;;;;;5036574;28;20131;-66
2024/03/02 10:13:12;;;;;;;6.45;1.40;;;6.50;99.90;;;;;;5036294;28;20462;-64
2024/03/02 10:15:42;;;;;;;4.70;1.05;;;6.40;99.90;;;;;;5036293;28;20084;-62
2024/03/02 10:18:11;;;;;;;5.50;0.90;;;6.30;99.90;;;;;;5036521;28;20042;-64
2024/03/02 10:20:38;;;;;;;4.25;0.80;;;6.40;99.90;;;;;;5036429;28;20044;-64
2024/03/02 10:23:04;;;;;;;4.30;1.00;;;6.40;99.90;;;;;;5035327;28;20049;-64
2024/03/02 10:25:31;;;;;;;5.68;1.23;;;6.50;99.90;;;;;;5048248;28;20052;-64
2024/03/02 10:28:13;;;;;;;4.05;0.90;;;6.80;99.90;;;;;;5056235;28;20048;-64
2024/03/02 10:30:39;;;;;;;7.22;1.10;;;7.00;99.90;;;;;;5054772;28;20049;-64
2024/03/02 10:33:06;;;;;;;6.95;1.42;;;7.20;99.90;;;;;;5055837;28;20040;-64
2024/03/02 10:35:36;;;;;;;6.68;1.25;;;7.20;99.90;;;;;;5055972;28;20071;-64
2024/03/02 10:38:03;;;;;;;4.70;0.98;;;7.30;99.90;;;;;;5056153;28;20052;-64
2024/03/02 10:40:30;;;;;;;5.50;1.00;;;7.20;99.90;;;;;;5054035;28;20104;-64
2024/03/02 10:42:56;;;;;;;4.38;0.65;;;7.20;99.90;;;;;;5055961;28;20120;-62
2024/03/02 10:45:23;;;;;;;4.90;1.00;;;7.10;99.90;;;;;;5054396;28;20056;-62
2024/03/02 10:47:50;;;;;;;3.67;0.68;;;7.00;99.90;;;;;;5056166;28;20482;-62
2024/03/02 10:50:17;;;;;;;2.63;0.50;;;6.80;99.90;;;;;;5055677;28;20045;-62
2024/03/02 10:52:44;;;;;;;2.05;0.70;;;6.50;99.90;;;;;;5054737;28;20459;-63
2024/03/02 10:55:12;;;;;;;1.30;0.40;;;6.40;99.90;;;;;;5054442;28;20389;-63
2024/03/02 10:57:39;;;;;;;1.17;0.30;;;6.20;99.90;;;;;;5055444;28;20402;-63
2024/03/02 11:00:06;;;;;;;1.40;0.60;;;6.10;99.90;;;;;;5055481;28;20379;-63
2024/03/02 11:02:33;;;;;;;1.10;0.50;;;6.00;99.90;;;;;;5055520;28;20043;-63
2024/03/02 11:04:59;;;;;;;1.13;0.50;;;6.00;99.90;;;;;;5055778;28;20040;-63
2024/03/02 11:07:26;;;;;;;1.60;0.60;;;6.10;99.90;;;;;;5055700;28;20485;-63
2024/03/02 11:09:53;;;;;;;1.30;0.47;;;6.20;99.90;;;;;;5055643;28;20466;-63
2024/03/02 11:12:20;;;;;;;0.82;0.38;;;6.20;99.90;;;;;;5055404;28;20083;-63
2024/03/02 11:14:47;;;;;;;2.05;0.60;;;6.20;99.90;;;;;;5054080;28;20478;-63
2024/03/02 11:17:15;;;;;;;2.03;0.55;;;6.20;99.90;;;;;;5055543;28;20125;-62
2024/03/02 11:19:42;;;;;;;2.92;0.60;;;6.20;99.90;;;;;;5054532;28;20120;-62
2024/03/02 11:22:09;;;;;;;1.30;0.60;;;6.10;99.90;;;;;;5055528;28;20098;-62
2024/03/02 11:24:36;;;;;;;2.50;0.30;;;6.00;99.90;;;;;;5055302;28;20053;-63
2024/03/02 11:27:11;;;;;;;1.23;0.30;;;5.90;99.90;;;;;;5053791;28;20118;-65
2024/03/02 11:29:41;;;;;;;1.17;0.57;;;5.70;99.90;;;;;;5053996;28;20043;-66
2024/03/02 11:32:08;;;;;;;0.75;0.30;;;5.80;99.90;;;;;;5055023;28;20053;-66
2024/03/02 11:34:35;;;;;;;0.50;0.25;;;5.90;99.90;;;;;;5054824;28;20037;-66
2024/03/02 11:37:02;;;;;;;0.40;0.20;;;6.00;99.90;;;;;;5053575;28;20489;-64
2024/03/02 11:39:29;;;;;;;1.23;0.30;;;6.00;99.90;;;;;;5053512;28;20352;-64
2024/03/02 11:41:56;;;;;;;1.25;0.40;;;6.10;99.90;;;;;;5054729;28;20094;-63
2024/03/02 11:44:25;;;;;;;0.55;0.30;;;6.20;99.90;;;;;;5053409;28;20045;-66
2024/03/02 11:46:53;;;;;;;0.43;0.20;;;6.30;99.90;;;;;;5054526;28;20489;-66
2024/03/02 11:49:20;;;;;;;0.88;0.38;;;6.30;99.90;;;;;;5054395;28;20048;-65
2024/03/02 11:51:47;;;;;;;0.57;0.22;;;6.40;99.90;;;;;;5054557;28;20379;-65
2024/03/02 11:54:13;;;;;;;2.30;0.57;;;6.50;99.90;;;;;;5054568;28;20051;-65
2024/03/02 11:56:40;;;;;;;0.73;0.30;;;6.60;99.90;;;;;;5040350;28;20132;-64
2024/03/02 11:59:07;;;;;;;1.15;0.40;;;6.70;99.90;;;;;;5034725;28;20046;-65
2024/03/02 12:01:34;;;;;;;1.23;0.40;;;6.70;99.90;;;;;;5043209;28;20102;-62
2024/03/02 12:04:01;;;;;;;1.23;0.20;;;6.80;99.90;;;;;;5053108;28;20049;-62
2024/03/02 12:06:29;;;;;;;0.77;0.25;;;6.90;99.90;;;;;;5054352;28;20418;-66
2024/03/02 12:08:56;;;;;;;1.33;0.20;;;6.90;99.90;;;;;;5054715;28;20053;-62
2024/03/02 12:11:23;;;;;;;1.60;0.45;;;7.10;99.90;;;;;;5054643;28;20040;-63
2024/03/02 12:13:49;;;;;;;0.77;0.30;;;7.20;99.90;;;;;;5052816;28;20599;-66
2024/03/02 12:16:16;;;;;;;1.63;0.35;;;7.20;99.90;;;;;;5053846;28;20060;-65
2024/03/02 12:18:43;;;;;;;1.25;0.50;;;7.30;99.90;;;;;;5054274;28;20037;-64
2024/03/02 12:21:10;;;;;;;0.65;0.30;;;7.40;99.90;;;;;;5053967;28;20047;-64
2024/03/02 12:23:37;;;;;;;4.15;0.45;;;7.40;99.90;;;;;;5054303;28;20037;-63
2024/03/02 12:26:04;;;;;;;3.08;0.50;;;7.40;99.90;;;;;;5051782;28;20045;-63
2024/03/02 12:28:31;;;;;;;0.85;0.32;;;7.40;99.90;;;;;;5054292;28;20037;-63
2024/03/02 12:31:00;;;;;;;0.85;0.25;;;7.50;99.90;;;;;;5054211;28;20051;-63
2024/03/02 12:33:29;;;;;;;2.40;0.60;;;7.60;99.90;;;;;;5052612;28;20041;-63
2024/03/02 12:35:56;;;;;;;1.70;0.47;;;7.80;99.90;;;;;;5052121;28;20044;-63
2024/03/02 12:38:25;;;;;;;3.63;0.70;;;7.80;99.90;;;;;;5053394;28;20513;-63
2024/03/02 12:40:52;;;;;;;2.90;1.80;;;7.90;99.90;;;;;;5054106;28;20096;-64
2024/03/02 12:43:19;;;;;;;6.13;3.58;;;8.00;99.90;;;;;;5053507;28;20051;-64
2024/03/02 12:45:46;;;;;;;9.30;6.43;;;8.10;99.90;;;;;;5052572;28;20468;-65
2024/03/02 12:48:12;;;;;;;3.28;1.67;;;8.30;99.90;;;;;;5053715;28;20072;-64
2024/03/02 12:50:39;;;;;;;3.30;0.88;;;8.50;99.90;;;;;;5052588;28;20044;-64
2024/03/02 12:53:08;;;;;;;2.53;0.55;;;8.60;99.90;;;;;;5053457;28;20115;-64
2024/03/02 12:55:34;;;;;;;3.83;0.82;;;8.50;99.90;;;;;;5052356;28;20051;-64
2024/03/02 12:58:02;;;;;;;4.22;0.60;;;8.60;99.90;;;;;;5053641;28;20091;-64
2024/03/02 13:00:32;;;;;;;2.25;1.40;;;8.70;99.90;;;;;;5051220;28;20053;-63